sensor_id;sensor_type;location;lat;lon;timestamp;temperature;humidity
30250;DHT22;17064;47.974;13.826;2022-10-24T03:00:31;12.00;99.90
30250;DHT22;17064;47.974;13.826;2022-10-24T03:05:31;12.00;99.90
30250;DHT22;17064;47.974;13.826;2022-10-24T03:10:32;12.10;99.90
30250;DHT22;17064;47.974;13.826;2022-10-24T03:15:33;12.20;99.90
30250;DHT22;17064;47.974;13.826;2022-10-24T03:20:33;12.20;99.90
30250;DHT22;17064;47.974;13.826;2022-10-24T03:25:34;12.20;99.90
30250;DHT22;17064;47.974;13.826;2022-10-24T03:30:35;12.30;99.90
30250;DHT22;17064;47.974;13.826;2022-10-24T03:35:36;12.40;99.90
30250;DHT22;17064;47.974;13.826;2022-10-24T03:40:37;12.40;99.90
30250;DHT22;17064;47.974;13.826;2022-10-24T03:45:38;12.50;99.90
30250;DHT22;17064;47.974;13.826;2022-10-24T03:50:38;12.50;99.90
30250;DHT22;17064;47.974;13.826;2022-10-24T03:55:39;12.50;99.90
30250;DHT22;17064;47.974;13.826;2022-10-24T04:00:40;12.50;99.90
30250;DHT22;17064;47.974;13.826;2022-10-24T04:05:42;12.50;99.90
30250;DHT22;17064;47.974;13.826;2022-10-24T04:10:42;12.50;99.90
30250;DHT22;17064;47.974;13.826;2022-10-24T04:15:43;12.50;99.90
30250;DHT22;17064;47.974;13.826;2022-10-24T04:20:44;12.40;99.90
30250;DHT22;17064;47.974;13.826;2022-10-24T04:25:45;12.50;99.90
30250;DHT22;17064;47.974;13.826;2022-10-24T04:30:46;12.50;99.90
30250;DHT22;17064;47.974;13.826;2022-10-24T04:35:48;12.50;99.90
30250;DHT22;17064;47.974;13.826;2022-10-24T04:40:51;12.50;99.90
30250;DHT22;17064;47.974;13.826;2022-10-24T04:45:51;12.50;99.90
30250;DHT22;17064;47.974;13.826;2022-10-24T04:50:52;12.50;99.90
30250;DHT22;17064;47.974;13.826;2022-10-24T04:55:53;12.50;99.90
30250;DHT22;17064;47.974;13.826;2022-10-24T05:00:54;12.60;99.90
30250;DHT22;17064;47.974;13.826;2022-10-24T05:05:55;12.60;99.90
30250;DHT22;17064;47.974;13.826;2022-10-24T05:10:55;12.60;99.90
30250;DHT22;17064;47.974;13.826;2022-10-24T05:15:56;12.60;99.90
30250;DHT22;17064;47.974;13.826;2022-10-24T05:20:58;12.50;99.90
30250;DHT22;17064;47.974;13.826;2022-10-24T05:25:59;12.60;99.90
30250;DHT22;17064;47.974;13.826;2022-10-24T05:31:00;12.50;99.90
30250;DHT22;17064;47.974;13.826;2022-10-24T05:36:01;12.50;99.90
30250;DHT22;17064;47.974;13.826;2022-10-24T05:41:01;12.50;99.90
30250;DHT22;17064;47.974;13.826;2022-10-24T05:46:02;12.40;99.90
30250;DHT22;17064;47.974;13.826;2022-10-24T05:51:03;12.40;99.90
30250;DHT22;17064;47.974;13.826;2022-10-24T05:56:04;12.40;99.90
30250;DHT22;17064;47.974;13.826;2022-10-24T06:01:05;12.40;99.90
30250;DHT22;17064;47.974;13.826;2022-10-24T06:06:07;12.50;99.90
30250;DHT22;17064;47.974;13.826;2022-10-24T06:11:09;12.40;99.90
30250;DHT22;17064;47.974;13.826;2022-10-24T06:16:10;12.40;99.90
30250;DHT22;17064;47.974;13.826;2022-10-24T06:21:11;12.40;99.90
30250;DHT22;17064;47.974;13.826;2022-10-24T06:26:13;12.40;99.90
30250;DHT22;17064;47.974;13.826;2022-10-24T06:31:14;12.40;99.90
30250;DHT22;17064;47.974;13.826;2022-10-24T06:36:14;12.40;99.90
30250;DHT22;17064;47.974;13.826;2022-10-24T06:41:15;12.50;99.90
30250;DHT22;17064;47.974;13.826;2022-10-24T06:46:16;12.50;99.90
30250;DHT22;17064;47.974;13.826;2022-10-24T06:51:17;12.50;99.90
30250;DHT22;17064;47.974;13.826;2022-10-24T06:56:18;12.60;99.90
30250;DHT22;17064;47.974;13.826;2022-10-24T07:01:21;12.70;99.90
30250;DHT22;17064;47.974;13.826;2022-10-24T07:06:26;12.70;99.90
30250;DHT22;17064;47.974;13.826;2022-10-24T07:11:27;12.70;99.90
30250;DHT22;17064;47.974;13.826;2022-10-24T07:16:28;12.80;99.90
30250;DHT22;17064;47.974;13.826;2022-10-24T07:21:31;12.90;99.90
30250;DHT22;17064;47.974;13.826;2022-10-24T07:26:32;12.90;99.90
30250;DHT22;17064;47.974;13.826;2022-10-24T07:31:35;13.00;99.90
30250;DHT22;17064;47.974;13.826;2022-10-24T07:36:35;13.00;99.90
30250;DHT22;17064;47.974;13.826;2022-10-24T07:41:38;13.10;99.90
30250;DHT22;17064;47.974;13.826;2022-10-24T07:46:41;13.00;99.90
30250;DHT22;17064;47.974;13.826;2022-10-24T07:51:41;13.10;99.90
30250;DHT22;17064;47.974;13.826;2022-10-24T07:56:42;13.10;99.90
30250;DHT22;17064;47.974;13.826;2022-10-24T08:01:43;13.10;99.90
30250;DHT22;17064;47.974;13.826;2022-10-24T08:06:44;13.20;99.90
30250;DHT22;17064;47.974;13.826;2022-10-24T08:11:44;13.20;99.90
30250;DHT22;17064;47.974;13.826;2022-10-24T08:16:45;13.40;99.90
30250;DHT22;17064;47.974;13.826;2022-10-24T08:21:46;13.60;99.90
30250;DHT22;17064;47.974;13.826;2022-10-24T08:26:47;13.80;99.90
30250;DHT22;17064;47.974;13.826;2022-10-24T08:31:50;13.90;99.90
30250;DHT22;17064;47.974;13.826;2022-10-24T08:36:51;14.00;99.90
30250;DHT22;17064;47.974;13.826;2022-10-24T08:41:54;14.00;99.90
30250;DHT22;17064;47.974;13.826;2022-10-24T08:47:04;14.10;99.90
30250;DHT22;17064;47.974;13.826;2022-10-24T08:57:37;14.30;99.90
30250;DHT22;17064;47.974;13.826;2022-10-24T09:02:40;14.50;99.90
30250;DHT22;17064;47.974;13.826;2022-10-24T09:07:44;14.60;99.90
30250;DHT22;17064;47.974;13.826;2022-10-24T09:12:46;14.70;99.90
30250;DHT22;17064;47.974;13.826;2022-10-24T09:17:47;14.80;99.90
30250;DHT22;17064;47.974;13.826;2022-10-24T09:22:48;15.00;99.90
30250;DHT22;17064;47.974;13.826;2022-10-24T09:27:50;15.20;99.90
30250;DHT22;17064;47.974;13.826;2022-10-24T09:32:52;15.40;99.90
30250;DHT22;17064;47.974;13.826;2022-10-24T09:37:56;15.50;99.90
30250;DHT22;17064;47.974;13.826;2022-10-24T09:43:13;15.80;99.90
30250;DHT22;17064;47.974;13.826;2022-10-24T09:59:34;16.00;99.90
30250;DHT22;17064;47.974;13.826;2022-10-24T10:04:36;16.20;99.90
30250;DHT22;17064;47.974;13.826;2022-10-24T10:09:37;16.20;99.90
30250;DHT22;17064;47.974;13.826;2022-10-24T10:14:41;16.10;99.90
30250;DHT22;17064;47.974;13.826;2022-10-24T10:19:45;15.90;99.90
30250;DHT22;17064;47.974;13.826;2022-10-24T10:24:49;15.70;99.90
30250;DHT22;17064;47.974;13.826;2022-10-24T10:35:21;15.60;99.90
30250;DHT22;17064;47.974;13.826;2022-10-24T10:40:36;15.70;99.90
30250;DHT22;17064;47.974;13.826;2022-10-24T10:45:50;15.70;99.90
30250;DHT22;17064;47.974;13.826;2022-10-24T10:51:38;15.70;99.90
30250;DHT22;17064;47.974;13.826;2022-10-24T10:57:06;15.70;99.90
30250;DHT22;17064;47.974;13.826;2022-10-24T11:07:44;15.50;99.90
30250;DHT22;17064;47.974;13.826;2022-10-24T11:12:48;15.40;99.90
30250;DHT22;17064;47.974;13.826;2022-10-24T11:28:21;15.50;99.90
30250;DHT22;17064;47.974;13.826;2022-10-24T11:33:30;15.70;99.90
30250;DHT22;17064;47.974;13.826;2022-10-24T11:38:42;16.00;99.90
30250;DHT22;17064;47.974;13.826;2022-10-24T11:43:45;16.30;99.90
30250;DHT22;17064;47.974;13.826;2022-10-24T11:54:02;16.50;99.90
30250;DHT22;17064;47.974;13.826;2022-10-24T11:59:06;16.40;99.90
30250;DHT22;17064;47.974;13.826;2022-10-24T12:04:27;16.40;99.90
30250;DHT22;17064;47.974;13.826;2022-10-24T12:09:40;16.40;99.90
30250;DHT22;17064;47.974;13.826;2022-10-24T12:15:09;16.40;99.90
30250;DHT22;17064;47.974;13.826;2022-10-24T12:20:19;16.50;99.90
30250;DHT22;17064;47.974;13.826;2022-10-24T12:25:28;16.40;99.90
30250;DHT22;17064;47.974;13.826;2022-10-24T12:30:32;16.20;99.90
30250;DHT22;17064;47.974;13.826;2022-10-24T12:35:44;16.00;99.90
30250;DHT22;17064;47.974;13.826;2022-10-24T12:40:51;15.80;99.90
30250;DHT22;17064;47.974;13.826;2022-10-24T12:45:54;15.70;99.90
30250;DHT22;17064;47.974;13.826;2022-10-24T12:50:58;15.70;99.90
30250;DHT22;17064;47.974;13.826;2022-10-24T12:56:08;15.70;99.90
30250;DHT22;17064;47.974;13.826;2022-10-24T13:01:20;15.60;99.90
30250;DHT22;17064;47.974;13.826;2022-10-24T13:06:33;15.60;99.90
30250;DHT22;17064;47.974;13.826;2022-10-24T13:22:32;15.40;99.90
30250;DHT22;17064;47.974;13.826;2022-10-24T13:27:34;15.30;99.90
30250;DHT22;17064;47.974;13.826;2022-10-24T13:32:35;15.20;99.90
30250;DHT22;17064;47.974;13.826;2022-10-24T13:37:45;15.10;99.90
30250;DHT22;17064;47.974;13.826;2022-10-24T13:42:53;15.10;99.90
30250;DHT22;17064;47.974;13.826;2022-10-24T13:48:00;15.00;99.90
30250;DHT22;17064;47.974;13.826;2022-10-24T14:03:13;14.70;99.90
30250;DHT22;17064;47.974;13.826;2022-10-24T14:08:34;14.60;99.90
30250;DHT22;17064;47.974;13.826;2022-10-24T14:13:43;14.50;99.90
30250;DHT22;17064;47.974;13.826;2022-10-24T14:18:44;14.40;99.90
30250;DHT22;17064;47.974;13.826;2022-10-24T14:23:59;14.30;99.90
30250;DHT22;17064;47.974;13.826;2022-10-24T14:29:01;14.20;99.90
30250;DHT22;17064;47.974;13.826;2022-10-24T14:34:04;14.10;99.90
30250;DHT22;17064;47.974;13.826;2022-10-24T14:39:05;14.00;99.90
30250;DHT22;17064;47.974;13.826;2022-10-24T14:44:07;14.00;99.90
30250;DHT22;17064;47.974;13.826;2022-10-24T14:54:31;13.90;99.90
30250;DHT22;17064;47.974;13.826;2022-10-24T14:59:35;13.90;99.90
30250;DHT22;17064;47.974;13.826;2022-10-24T15:04:42;13.80;99.90
30250;DHT22;17064;47.974;13.826;2022-10-24T15:09:58;13.70;99.90
30250;DHT22;17064;47.974;13.826;2022-10-24T15:15:22;13.70;99.90
30250;DHT22;17064;47.974;13.826;2022-10-24T15:20:25;13.60;99.90
30250;DHT22;17064;47.974;13.826;2022-10-24T15:25:34;13.60;99.90
30250;DHT22;17064;47.974;13.826;2022-10-24T15:30:36;13.50;99.90
30250;DHT22;17064;47.974;13.826;2022-10-24T15:35:40;13.50;99.90
30250;DHT22;17064;47.974;13.826;2022-10-24T15:40:44;13.40;99.90
30250;DHT22;17064;47.974;13.826;2022-10-24T15:45:45;13.40;99.90
30250;DHT22;17064;47.974;13.826;2022-10-24T15:50:46;13.30;99.90
30250;DHT22;17064;47.974;13.826;2022-10-24T15:55:47;13.30;99.90
30250;DHT22;17064;47.974;13.826;2022-10-24T16:00:48;13.30;99.90
30250;DHT22;17064;47.974;13.826;2022-10-24T16:05:55;13.20;99.90
30250;DHT22;17064;47.974;13.826;2022-10-24T16:10:56;13.20;99.90
30250;DHT22;17064;47.974;13.826;2022-10-24T16:15:57;13.20;99.90
30250;DHT22;17064;47.974;13.826;2022-10-24T16:20:58;13.20;99.90
30250;DHT22;17064;47.974;13.826;2022-10-24T16:26:00;13.20;99.90
30250;DHT22;17064;47.974;13.826;2022-10-24T16:31:01;13.10;99.90
30250;DHT22;17064;47.974;13.826;2022-10-24T16:36:03;13.00;99.90
30250;DHT22;17064;47.974;13.826;2022-10-24T16:41:04;13.00;99.90
30250;DHT22;17064;47.974;13.826;2022-10-24T16:46:05;13.00;99.90
30250;DHT22;17064;47.974;13.826;2022-10-24T16:51:18;12.90;99.90
30250;DHT22;17064;47.974;13.826;2022-10-24T16:56:19;12.90;99.90
30250;DHT22;17064;47.974;13.826;2022-10-24T17:01:20;12.80;99.90
30250;DHT22;17064;47.974;13.826;2022-10-24T17:06:22;12.70;99.90
30250;DHT22;17064;47.974;13.826;2022-10-24T17:11:23;12.70;99.90
30250;DHT22;17064;47.974;13.826;2022-10-24T17:16:24;12.70;99.90
30250;DHT22;17064;47.974;13.826;2022-10-24T17:21:25;12.70;99.90
30250;DHT22;17064;47.974;13.826;2022-10-24T17:26:27;12.60;99.90
30250;DHT22;17064;47.974;13.826;2022-10-24T17:31:28;12.60;99.90
30250;DHT22;17064;47.974;13.826;2022-10-24T17:36:33;12.60;99.90
30250;DHT22;17064;47.974;13.826;2022-10-24T17:41:37;12.60;99.90
30250;DHT22;17064;47.974;13.826;2022-10-24T17:46:42;12.60;99.90
30250;DHT22;17064;47.974;13.826;2022-10-24T17:51:45;12.50;99.90
30250;DHT22;17064;47.974;13.826;2022-10-24T17:56:46;12.60;99.90
30250;DHT22;17064;47.974;13.826;2022-10-24T18:01:48;12.60;99.90
30250;DHT22;17064;47.974;13.826;2022-10-24T18:06:49;12.70;99.90
30250;DHT22;17064;47.974;13.826;2022-10-24T18:11:50;12.80;99.90
30250;DHT22;17064;47.974;13.826;2022-10-24T18:16:53;12.80;99.90
30250;DHT22;17064;47.974;13.826;2022-10-24T18:21:54;12.80;99.90
30250;DHT22;17064;47.974;13.826;2022-10-24T18:26:56;12.70;99.90
30250;DHT22;17064;47.974;13.826;2022-10-24T18:31:57;12.70;99.90
30250;DHT22;17064;47.974;13.826;2022-10-24T18:37:00;12.70;99.90
30250;DHT22;17064;47.974;13.826;2022-10-24T18:42:54;12.70;99.90
30250;DHT22;17064;47.974;13.826;2022-10-24T18:47:48;12.60;99.90
30250;DHT22;17064;47.974;13.826;2022-10-24T18:53:02;12.60;99.90
30250;DHT22;17064;47.974;13.826;2022-10-24T18:58:11;12.60;99.90
30250;DHT22;17064;47.974;13.826;2022-10-24T19:03:26;12.60;99.90
30250;DHT22;17064;47.974;13.826;2022-10-24T19:08:33;12.60;99.90
30250;DHT22;17064;47.974;13.826;2022-10-24T19:13:34;12.50;99.90
30250;DHT22;17064;47.974;13.826;2022-10-24T19:18:36;12.50;99.90
30250;DHT22;17064;47.974;13.826;2022-10-24T19:23:37;12.40;99.90
30250;DHT22;17064;47.974;13.826;2022-10-24T19:28:38;12.40;99.90
30250;DHT22;17064;47.974;13.826;2022-10-24T19:33:40;12.40;99.90
30250;DHT22;17064;47.974;13.826;2022-10-24T19:38:42;12.40;99.90
30250;DHT22;17064;47.974;13.826;2022-10-24T19:43:47;12.40;99.90
30250;DHT22;17064;47.974;13.826;2022-10-24T19:48:48;12.50;99.90
30250;DHT22;17064;47.974;13.826;2022-10-24T19:53:50;12.50;99.90
30250;DHT22;17064;47.974;13.826;2022-10-24T19:58:53;12.50;99.90
30250;DHT22;17064;47.974;13.826;2022-10-24T20:03:58;12.50;99.90
30250;DHT22;17064;47.974;13.826;2022-10-24T20:09:00;12.40;99.90
30250;DHT22;17064;47.974;13.826;2022-10-24T20:14:02;12.40;99.90
30250;DHT22;17064;47.974;13.826;2022-10-24T20:19:06;12.30;99.90
30250;DHT22;17064;47.974;13.826;2022-10-24T20:24:07;12.30;99.90
30250;DHT22;17064;47.974;13.826;2022-10-24T20:29:09;12.20;99.90
30250;DHT22;17064;47.974;13.826;2022-10-24T20:34:14;12.10;99.90
30250;DHT22;17064;47.974;13.826;2022-10-24T20:39:15;12.10;99.90
30250;DHT22;17064;47.974;13.826;2022-10-24T20:44:20;12.00;99.90
30250;DHT22;17064;47.974;13.826;2022-10-24T20:49:21;11.90;99.90
30250;DHT22;17064;47.974;13.826;2022-10-24T20:54:22;11.80;99.90
30250;DHT22;17064;47.974;13.826;2022-10-24T20:59:23;11.60;99.90
30250;DHT22;17064;47.974;13.826;2022-10-24T21:04:24;11.50;99.90
30250;DHT22;17064;47.974;13.826;2022-10-24T21:09:24;11.40;99.90
30250;DHT22;17064;47.974;13.826;2022-10-24T21:14:25;11.30;99.90
30250;DHT22;17064;47.974;13.826;2022-10-24T21:19:26;11.30;99.90
30250;DHT22;17064;47.974;13.826;2022-10-24T21:24:27;11.10;99.90
30250;DHT22;17064;47.974;13.826;2022-10-24T21:29:28;11.10;99.90
30250;DHT22;17064;47.974;13.826;2022-10-24T21:34:28;10.90;99.90
30250;DHT22;17064;47.974;13.826;2022-10-24T21:39:29;10.80;99.90
30250;DHT22;17064;47.974;13.826;2022-10-24T21:44:30;10.80;99.90
30250;DHT22;17064;47.974;13.826;2022-10-24T21:49:31;10.70;99.90
30250;DHT22;17064;47.974;13.826;2022-10-24T21:54:31;10.70;99.90
30250;DHT22;17064;47.974;13.826;2022-10-24T21:59:32;10.50;99.90
30250;DHT22;17064;47.974;13.826;2022-10-24T22:04:33;10.40;99.90
30250;DHT22;17064;47.974;13.826;2022-10-24T22:09:34;10.30;99.90
30250;DHT22;17064;47.974;13.826;2022-10-24T22:14:35;10.20;99.90
30250;DHT22;17064;47.974;13.826;2022-10-24T22:19:35;10.20;99.90
30250;DHT22;17064;47.974;13.826;2022-10-24T22:24:36;10.20;99.90
30250;DHT22;17064;47.974;13.826;2022-10-24T22:29:37;10.20;99.90
30250;DHT22;17064;47.974;13.826;2022-10-24T22:34:38;10.30;99.90
30250;DHT22;17064;47.974;13.826;2022-10-24T22:39:39;10.30;99.90
30250;DHT22;17064;47.974;13.826;2022-10-24T22:44:40;10.30;99.90
30250;DHT22;17064;47.974;13.826;2022-10-24T22:54:48;10.30;99.90
30250;DHT22;17064;47.974;13.826;2022-10-24T22:59:49;10.40;99.90
